createdAt,value
2022-12-14T00:01:45.158Z,100012.78
2022-12-14T00:04:16.424Z,100035.50
2022-12-14T00:06:43.451Z,100034.34
2022-12-14T00:09:10.424Z,100030.63
2022-12-14T00:11:37.573Z,100021.59
2022-12-14T00:14:05.338Z,100029.03
2022-12-14T00:16:34.290Z,100019.44
2022-12-14T00:19:02.902Z,100024.22
2022-12-14T00:21:30.413Z,100017.88
2022-12-14T00:23:59.711Z,100008.38
2022-12-14T00:26:30.063Z,100016.63
2022-12-14T00:28:59.659Z,100013.03
2022-12-14T00:31:26.927Z,100012.75
2022-12-14T00:33:54.963Z,100009.50
2022-12-14T00:36:22.420Z,100011.44
2022-12-14T00:38:49.773Z,100019.00
2022-12-14T00:41:17.017Z,100017.97
2022-12-14T00:43:44.345Z,100019.41
2022-12-14T00:46:11.465Z,100019.25
2022-12-14T00:48:38.628Z,100014.03
2022-12-14T00:51:06.020Z,100018.81
2022-12-14T00:53:33.131Z,100001.50
2022-12-14T00:56:08.379Z,100016.81
2022-12-14T00:58:35.845Z,100016.81
2022-12-14T01:01:08.609Z,100016.47
2022-12-14T01:03:36.132Z,100011.16
2022-12-14T01:06:03.705Z,100017.06
2022-12-14T01:08:36.150Z,100011.00
2022-12-14T01:11:05.671Z,100020.28
2022-12-14T01:13:33.254Z,100022.81
2022-12-14T01:16:11.540Z,100023.47
2022-12-14T01:18:40.013Z,100027.41
2022-12-14T01:21:20.148Z,100022.94
2022-12-14T01:23:48.693Z,100022.56
2022-12-14T01:26:17.240Z,100019.88
2022-12-14T01:28:46.170Z,100006.03
2022-12-14T01:31:18.637Z,100024.94
2022-12-14T01:33:46.437Z,100019.88
2022-12-14T01:36:16.650Z,100015.63
2022-12-14T01:38:44.440Z,100005.00
2022-12-14T01:41:23.090Z,100012.34
2022-12-14T01:43:56.769Z,100002.59
2022-12-14T01:46:45.160Z,100004.97
2022-12-14T01:49:24.095Z,99996.31
2022-12-14T01:52:00.988Z,99996.75
2022-12-14T01:54:31.467Z,99992.53
2022-12-14T01:56:58.733Z,99987.34
2022-12-14T01:59:36.982Z,99977.25
2022-12-14T02:02:07.208Z,99972.22
2022-12-14T02:04:37.862Z,99975.50
2022-12-14T02:07:05.290Z,99971.13
2022-12-14T02:09:36.811Z,99977.13
2022-12-14T02:12:09.981Z,99974.59
2022-12-14T02:14:37.697Z,99973.63
2022-12-14T02:17:06.452Z,99981.59
2022-12-14T02:19:33.668Z,99989.34
2022-12-14T02:22:18.847Z,99984.16
2022-12-14T02:25:04.658Z,99974.59
2022-12-14T02:28:26.933Z,99981.03
2022-12-14T02:31:08.112Z,99977.28
2022-12-14T02:33:55.686Z,99972.56
2022-12-14T02:36:29.158Z,99967.22
2022-12-14T02:39:25.804Z,99973.97
2022-12-14T02:42:31.215Z,99968.78
2022-12-14T02:45:09.823Z,99976.66
2022-12-14T02:47:39.370Z,99973.66
2022-12-14T02:50:14.947Z,99976.88
2022-12-14T02:52:55.645Z,99976.88
2022-12-14T02:55:30.491Z,99970.72
2022-12-14T02:58:02.416Z,99960.75
2022-12-14T03:00:33.582Z,99949.63
2022-12-14T03:03:02.484Z,99974.09
2022-12-14T03:05:30.134Z,99958.28
2022-12-14T03:08:04.250Z,99979.13
2022-12-14T03:10:57.493Z,99982.78
2022-12-14T03:13:38.776Z,99981.19
2022-12-14T03:16:13.543Z,99988.13
2022-12-14T03:18:49.730Z,99986.88
2022-12-14T03:21:21.730Z,99981.38
2022-12-14T03:23:52.010Z,99965.09
2022-12-14T03:26:27.968Z,99980.53
2022-12-14T03:29:06.893Z,99978.84
2022-12-14T03:31:40.350Z,99982.63
2022-12-14T03:34:13.334Z,99986.16
2022-12-14T03:36:47.361Z,99986.69
2022-12-14T03:39:30.112Z,99977.56
2022-12-14T03:42:14.082Z,99981.34
2022-12-14T03:44:59.493Z,99984.00
2022-12-14T03:47:52.422Z,99977.41
2022-12-14T03:50:28.992Z,99980.91
2022-12-14T03:53:07.620Z,99975.31
2022-12-14T03:55:49.747Z,99978.03
2022-12-14T03:58:27.141Z,99979.78
2022-12-14T04:01:09.121Z,99977.66
2022-12-14T04:03:50.256Z,99979.56
2022-12-14T04:06:26.673Z,99977.19
2022-12-14T04:09:23.038Z,99974.94
2022-12-14T04:12:16.933Z,99976.84
2022-12-14T04:15:08.807Z,99975.41
2022-12-14T04:18:05.910Z,99964.75
2022-12-14T04:20:53.752Z,99974.41
2022-12-14T04:23:54.336Z,99974.53
2022-12-14T04:26:27.395Z,99958.78
2022-12-14T04:29:18.023Z,99961.59
2022-12-14T04:31:51.539Z,99955.25
2022-12-14T04:34:23.291Z,99947.00
2022-12-14T04:36:56.236Z,99947.31
2022-12-14T04:39:29.533Z,99944.91
2022-12-14T04:42:01.014Z,99940.94
2022-12-14T04:44:53.533Z,99936.03
2022-12-14T04:47:29.192Z,99922.59
2022-12-14T04:50:11.072Z,99936.69
2022-12-14T04:52:45.894Z,99938.72
2022-12-14T04:55:25.420Z,99938.72
2022-12-14T04:57:58.485Z,99943.16
2022-12-14T05:00:25.764Z,99934.78
2022-12-14T05:03:17.040Z,99928.34
2022-12-14T05:06:08.953Z,99928.94
2022-12-14T05:08:57.463Z,99931.53
2022-12-14T05:14:27.899Z,99927.41
2022-12-14T05:16:55.746Z,99906.28
2022-12-14T05:19:26.747Z,99923.44
2022-12-14T05:21:54.891Z,99927.16
2022-12-14T05:24:21.906Z,99922.25
2022-12-14T05:26:48.982Z,99908.69
2022-12-14T05:29:17.146Z,99913.09
2022-12-14T05:31:49.327Z,99914.03
2022-12-14T05:34:17.303Z,99906.22
2022-12-14T05:36:44.444Z,99911.53
2022-12-14T05:39:11.497Z,99904.34
2022-12-14T05:41:38.570Z,99906.22
2022-12-14T05:44:05.739Z,99913.72
2022-12-14T05:46:32.780Z,99898.31
2022-12-14T05:48:59.782Z,99909.22
2022-12-14T05:51:26.928Z,99906.53
2022-12-14T05:53:53.930Z,99920.22
2022-12-14T05:56:21.221Z,99912.66
2022-12-14T05:58:51.577Z,99906.69
2022-12-14T06:01:19.669Z,99900.13
2022-12-14T06:03:47.861Z,99902.91
2022-12-14T06:06:15.343Z,99907.09
2022-12-14T06:08:45.100Z,99919.06
2022-12-14T06:11:20.529Z,99908.03
2022-12-14T06:13:48.289Z,99904.66
2022-12-14T06:16:24.656Z,99913.72
2022-12-14T06:18:54.182Z,99904.31
2022-12-14T06:21:24.020Z,99910.13
2022-12-14T06:23:51.174Z,99905.09
2022-12-14T06:26:18.759Z,99900.75
2022-12-14T06:28:45.940Z,99892.19
2022-12-14T06:31:24.329Z,99893.78
2022-12-14T06:33:53.412Z,99901.50
2022-12-14T06:36:38.131Z,99899.03
2022-12-14T06:39:08.326Z,99897.47
2022-12-14T06:41:35.458Z,99900.16
2022-12-14T06:44:05.761Z,99898.44
2022-12-14T06:46:33.022Z,99896.72
2022-12-14T06:49:00.135Z,99898.44
2022-12-14T06:51:27.117Z,99904.47
2022-12-14T06:53:56.220Z,99896.84
2022-12-14T06:56:27.813Z,99909.75
2022-12-14T06:58:56.339Z,99906.38
2022-12-14T07:01:25.836Z,99907.91
2022-12-14T07:03:57.862Z,99912.00
2022-12-14T07:06:26.857Z,99912.59
2022-12-14T07:08:55.621Z,99906.41
2022-12-14T07:11:23.384Z,99920.81
2022-12-14T07:13:50.573Z,99919.97
2022-12-14T07:16:20.228Z,99921.56
2022-12-14T07:18:48.072Z,99914.66
2022-12-14T07:21:17.262Z,99917.81
2022-12-14T07:23:46.031Z,99916.84
2022-12-14T07:26:19.088Z,99902.28
2022-12-14T07:28:47.294Z,99906.47
2022-12-14T07:31:17.980Z,99903.88
2022-12-14T07:33:45.773Z,99905.63
2022-12-14T07:36:16.140Z,99904.72
2022-12-14T07:38:45.013Z,99896.97
2022-12-14T07:41:22.311Z,99907.34
2022-12-14T07:43:50.323Z,99903.88
2022-12-14T07:46:20.291Z,99908.78
2022-12-14T07:48:48.933Z,99906.34
2022-12-14T07:51:17.889Z,99900.41
2022-12-14T07:53:45.096Z,99901.88
2022-12-14T07:56:25.142Z,99886.56
2022-12-14T07:58:52.782Z,99889.91
2022-12-14T08:01:22.893Z,99889.25
2022-12-14T08:04:04.150Z,99896.97
2022-12-14T08:06:31.632Z,99893.63
2022-12-14T08:08:58.902Z,99889.19
2022-12-14T08:11:26.182Z,99893.63
2022-12-14T08:14:17.255Z,99890.31
2022-12-14T08:16:45.646Z,99882.47
2022-12-14T08:19:13.711Z,99892.06
2022-12-14T08:21:41.315Z,99894.72
2022-12-14T08:24:11.427Z,99895.53
2022-12-14T08:26:38.625Z,99887.13
2022-12-14T08:29:06.662Z,99886.63
2022-12-14T08:31:34.718Z,99886.06
2022-12-14T08:34:02.425Z,99885.78
2022-12-14T08:36:32.975Z,99873.44
2022-12-14T08:39:04.822Z,99875.59
2022-12-14T08:41:32.636Z,99867.06
2022-12-14T08:44:01.746Z,99868.81
2022-12-14T08:46:31.300Z,99868.69
2022-12-14T08:48:59.028Z,99854.88
2022-12-14T08:51:27.334Z,99860.81
2022-12-14T08:53:55.891Z,99864.97
2022-12-14T08:56:25.734Z,99857.31
2022-12-14T08:58:53.056Z,99861.38
2022-12-14T09:01:32.051Z,99854.47
2022-12-14T09:04:08.848Z,99839.19
2022-12-14T09:06:38.309Z,99841.06
2022-12-14T09:09:11.952Z,99837.59
2022-12-14T09:11:43.345Z,99841.06
2022-12-14T09:14:10.984Z,99836.00
2022-12-14T09:16:38.241Z,99839.31
2022-12-14T09:19:05.434Z,99824.97
2022-12-14T09:21:32.778Z,99824.28
2022-12-14T09:24:00.163Z,99817.66
2022-12-14T09:26:27.878Z,99819.66
2022-12-14T09:28:56.593Z,99813.78
2022-12-14T09:31:26.483Z,99804.50
2022-12-14T09:33:55.127Z,99806.00
2022-12-14T09:36:25.253Z,99787.59
2022-12-14T09:38:55.523Z,99791.19
2022-12-14T09:41:34.678Z,99787.31
2022-12-14T09:44:17.728Z,99779.59
2022-12-14T09:47:10.939Z,99776.31
2022-12-14T09:49:53.673Z,99764.44
2022-12-14T09:52:26.453Z,99756.22
2022-12-14T09:54:55.298Z,99754.22
2022-12-14T09:57:30.651Z,99759.53
2022-12-14T09:59:57.780Z,99749.41
2022-12-14T10:02:43.025Z,99754.75
2022-12-14T10:05:34.091Z,99752.03
2022-12-14T10:08:13.443Z,99754.84
2022-12-14T10:11:07.027Z,99760.03
2022-12-14T10:13:51.473Z,99746.69
2022-12-14T10:16:33.453Z,99750.16
2022-12-14T10:19:35.392Z,99741.78
2022-12-14T10:22:18.743Z,99741.66
2022-12-14T10:25:15.071Z,99740.06
2022-12-14T10:28:09.662Z,99738.47
2022-12-14T10:30:36.464Z,99731.66
2022-12-14T10:33:16.954Z,99723.31
2022-12-14T10:36:00.395Z,99722.44
2022-12-14T10:38:35.299Z,99714.16
2022-12-14T10:41:29.904Z,99715.13
2022-12-14T10:44:12.724Z,99708.38
2022-12-14T10:47:01.205Z,99706.78
2022-12-14T10:49:36.776Z,99701.94
2022-12-14T10:52:12.631Z,99701.94
2022-12-14T10:54:52.642Z,99692.78
2022-12-14T10:57:27.485Z,99696.91
2022-12-14T11:00:11.145Z,99705.41
2022-12-14T11:02:42.812Z,99695.06
2022-12-14T11:05:24.661Z,99684.97
2022-12-14T11:07:51.681Z,99681.00
2022-12-14T11:10:24.707Z,99678.69
2022-12-14T11:13:12.777Z,99679.72
2022-12-14T11:15:46.733Z,99678.00
2022-12-14T11:18:16.600Z,99670.25
2022-12-14T11:20:51.637Z,99662.00
2022-12-14T11:23:18.734Z,99660.94
2022-12-14T11:25:49.202Z,99671.06
2022-12-14T11:28:31.309Z,99666.78
2022-12-14T11:31:10.809Z,99656.78
2022-12-14T11:33:44.013Z,99648.44
2022-12-14T11:36:42.976Z,99650.13
2022-12-14T11:39:15.715Z,99648.59
2022-12-14T11:41:52.462Z,99637.75
2022-12-14T11:44:19.585Z,99637.78
2022-12-14T11:46:56.518Z,99643.69
2022-12-14T11:49:25.305Z,99639.38
2022-12-14T11:51:58.495Z,99633.47
2022-12-14T11:54:25.928Z,99630.28
2022-12-14T11:56:59.647Z,99635.31
2022-12-14T11:59:32.931Z,99632.81
2022-12-14T12:02:37.466Z,99627.88
2022-12-14T12:05:10.349Z,99620.41
2022-12-14T12:07:40.688Z,99625.59
2022-12-14T12:10:45.072Z,99627.50
2022-12-14T12:13:35.710Z,99623.56
2022-12-14T12:16:10.564Z,99622.75
2022-12-14T12:18:46.664Z,99605.75
2022-12-14T12:21:35.352Z,99608.50
2022-12-14T12:24:05.306Z,99612.63
2022-12-14T12:26:35.104Z,99614.03
2022-12-14T12:29:20.504Z,99612.06
2022-12-14T12:32:08.704Z,99612.22
2022-12-14T12:34:49.451Z,99603.72
2022-12-14T12:37:26.646Z,99598.53
2022-12-14T12:40:02.562Z,99589.22
2022-12-14T12:42:50.298Z,99592.09
2022-12-14T12:45:40.582Z,99590.44
2022-12-14T12:48:33.416Z,99587.78
2022-12-14T12:51:05.362Z,99580.03
2022-12-14T12:53:39.266Z,99578.31
2022-12-14T12:56:14.143Z,99584.13
2022-12-14T12:58:41.558Z,99591.63
2022-12-14T13:01:24.922Z,99583.03
2022-12-14T13:03:57.460Z,99565.81
2022-12-14T13:06:52.006Z,99576.81
2022-12-14T13:09:48.903Z,99580.97
2022-12-14T13:12:33.022Z,99580.19
2022-12-14T13:15:03.389Z,99580.97
2022-12-14T13:17:33.187Z,99572.72
2022-12-14T13:20:04.334Z,99556.69
2022-12-14T13:22:33.704Z,99566.16
2022-12-14T13:25:11.110Z,99560.25
2022-12-14T13:27:41.021Z,99564.44
2022-12-14T13:30:16.720Z,99557.75
2022-12-14T13:33:05.757Z,99559.50
2022-12-14T13:35:32.958Z,99551.09
2022-12-14T13:38:48.966Z,99545.09
2022-12-14T13:41:32.495Z,99550.13
2022-12-14T13:44:18.048Z,99547.53
2022-12-14T13:46:45.284Z,99532.16
2022-12-14T13:49:22.539Z,99539.69
2022-12-14T13:51:51.302Z,99537.13
2022-12-14T13:54:31.583Z,99533.66
2022-12-14T13:57:23.459Z,99538.63
2022-12-14T13:59:53.298Z,99534.13
2022-12-14T14:02:32.422Z,99540.78
2022-12-14T14:05:15.185Z,99533.16
2022-12-14T14:07:53.784Z,99531.28
2022-12-14T14:10:51.291Z,99536.22
2022-12-14T14:13:30.069Z,99542.03
2022-12-14T14:16:27.345Z,99537.63
2022-12-14T14:19:13.396Z,99535.66
2022-12-14T14:22:14.125Z,99537.03
2022-12-14T14:24:55.193Z,99536.94
2022-12-14T14:27:50.414Z,99537.69
2022-12-14T14:30:27.933Z,99528.22
2022-12-14T14:33:07.547Z,99531.41
2022-12-14T14:35:43.092Z,99529.47
2022-12-14T14:38:32.177Z,99532.88
2022-12-14T14:41:18.795Z,99531.06
2022-12-14T14:44:21.685Z,99522.44
2022-12-14T14:46:50.557Z,99515.44
2022-12-14T14:49:26.546Z,99517.19
2022-12-14T14:51:53.855Z,99516.22
2022-12-14T14:54:56.111Z,99514.44
2022-12-14T14:57:56.467Z,99509.94
2022-12-14T15:00:23.572Z,99514.06
2022-12-14T15:02:54.675Z,99498.69
2022-12-14T15:05:41.858Z,99499.50
2022-12-14T15:08:29.298Z,99489.03
2022-12-14T15:10:57.281Z,99490.63
2022-12-14T15:13:28.735Z,99479.56
2022-12-14T15:15:58.788Z,99482.03
2022-12-14T15:18:27.250Z,99476.06
2022-12-14T15:21:05.866Z,99475.13
2022-12-14T15:23:38.063Z,99470.84
2022-12-14T15:26:26.106Z,99466.41
2022-12-14T15:28:59.232Z,99470.53
2022-12-14T15:31:42.127Z,99472.31
2022-12-14T15:34:19.860Z,99473.03
2022-12-14T15:36:47.980Z,99467.88
2022-12-14T15:39:32.868Z,99462.97
2022-12-14T15:42:15.370Z,99461.25
2022-12-14T15:44:54.422Z,99452.63
2022-12-14T15:47:31.255Z,99456.59
2022-12-14T15:50:33.933Z,99455.47
2022-12-14T15:53:18.481Z,99452.13
2022-12-14T15:55:56.348Z,99423.84
2022-12-14T15:58:34.629Z,99446.97
2022-12-14T16:01:11.732Z,99452.81
2022-12-14T16:03:42.685Z,99440.75
2022-12-14T16:06:12.522Z,99440.75
2022-12-14T16:08:55.365Z,99434.13
2022-12-14T16:11:40.377Z,99425.47
2022-12-14T16:14:31.061Z,99423.81
2022-12-14T16:16:59.912Z,99427.94
2022-12-14T16:19:33.907Z,99412.56
2022-12-14T16:22:10.489Z,99415.75
2022-12-14T16:24:38.183Z,99417.50
2022-12-14T16:27:18.662Z,99413.19
2022-12-14T16:30:06.891Z,99420.66
2022-12-14T16:32:34.011Z,99415.63
2022-12-14T16:35:01.858Z,99406.34
2022-12-14T16:37:36.654Z,99409.53
2022-12-14T16:40:04.205Z,99406.91
2022-12-14T16:42:31.972Z,99409.38
2022-12-14T16:44:59.052Z,99390.97
2022-12-14T16:47:29.173Z,99391.84
2022-12-14T16:49:59.730Z,99390.06
2022-12-14T16:52:32.645Z,99396.69
2022-12-14T16:55:10.689Z,99389.78
2022-12-14T16:57:50.463Z,99391.28
2022-12-14T17:00:26.501Z,99384.41
2022-12-14T17:03:05.897Z,99382.69
2022-12-14T17:05:40.183Z,99389.19
2022-12-14T17:08:08.380Z,99383.34
2022-12-14T17:10:35.506Z,99375.66
2022-12-14T17:13:04.114Z,99369.03
2022-12-14T17:15:34.517Z,99370.88
2022-12-14T17:18:04.813Z,99364.00
2022-12-14T17:20:39.410Z,99345.19
2022-12-14T17:23:09.751Z,99348.78
2022-12-14T17:25:37.071Z,99347.16
2022-12-14T17:28:06.821Z,99351.28
2022-12-14T17:30:34.007Z,99345.19
2022-12-14T17:33:01.137Z,99348.50
2022-12-14T17:35:31.650Z,99333.31
2022-12-14T17:37:59.721Z,99332.44
2022-12-14T17:40:27.352Z,99331.34
2022-12-14T17:42:57.208Z,99332.94
2022-12-14T17:45:25.980Z,99332.94
2022-12-14T17:47:53.614Z,99320.22
2022-12-14T17:50:22.066Z,99324.44
2022-12-14T17:52:50.549Z,99316.84
2022-12-14T17:55:23.265Z,99321.81
2022-12-14T17:57:51.412Z,99315.72
2022-12-14T18:00:48.002Z,99315.84
2022-12-14T18:03:17.042Z,99317.59
2022-12-14T18:05:48.888Z,99314.94
2022-12-14T18:08:20.571Z,99325.91
2022-12-14T18:10:51.211Z,99315.13
2022-12-14T18:13:18.381Z,99303.94
2022-12-14T18:15:49.673Z,99322.75
2022-12-14T18:18:21.915Z,99303.94
2022-12-14T18:20:53.877Z,99324.31
2022-12-14T18:23:22.138Z,99319.41
2022-12-14T18:25:52.800Z,99317.72
2022-12-14T18:28:20.651Z,99311.81
2022-12-14T18:31:00.384Z,99311.09
2022-12-14T18:33:28.497Z,99317.84
2022-12-14T18:35:57.059Z,99319.41
2022-12-14T18:38:25.174Z,99322.88
2022-12-14T18:40:55.063Z,99319.41
2022-12-14T18:43:23.859Z,99321.00
2022-12-14T18:45:53.324Z,99320.28
2022-12-14T18:48:21.410Z,99309.09
2022-12-14T18:50:49.821Z,99301.88
2022-12-14T18:53:19.670Z,99301.91
2022-12-14T18:55:48.450Z,99303.81
2022-12-14T18:58:19.197Z,99301.44
2022-12-14T19:00:47.897Z,99301.47
2022-12-14T19:03:15.526Z,99292.25
2022-12-14T19:05:42.885Z,99303.44
2022-12-14T19:08:10.903Z,99306.84
2022-12-14T19:10:40.576Z,99305.28
2022-12-14T19:13:09.753Z,99314.50
2022-12-14T19:15:36.939Z,99317.09
2022-12-14T19:18:04.172Z,99313.88
2022-12-14T19:20:31.335Z,99314.56
2022-12-14T19:22:58.658Z,99305.50
2022-12-14T19:25:25.900Z,99310.69
2022-12-14T19:30:40.334Z,99310.69
2022-12-14T19:33:08.302Z,99314.38
2022-12-14T19:35:35.530Z,99310.50
2022-12-14T19:38:02.615Z,99317.22
2022-12-14T19:40:29.735Z,99323.94
2022-12-14T19:42:56.858Z,99318.25
2022-12-14T19:45:23.913Z,99315.72
2022-12-14T19:47:51.215Z,99298.75
2022-12-14T19:50:18.333Z,99304.97
2022-12-14T19:52:45.498Z,99293.84
2022-12-14T19:55:12.503Z,99307.72
2022-12-14T19:57:40.590Z,99311.03
2022-12-14T20:00:09.563Z,99307.72
2022-12-14T20:02:40.017Z,99306.13
2022-12-14T20:05:08.061Z,99304.53
2022-12-14T20:07:40.190Z,99296.03
2022-12-14T20:10:10.583Z,99302.94
2022-12-14T20:12:37.572Z,99297.91
2022-12-14T20:15:05.028Z,99298.69
2022-12-14T20:17:32.302Z,99294.47
2022-12-14T20:19:59.549Z,99296.03
2022-12-14T20:22:26.882Z,99277.38
2022-12-14T20:24:53.949Z,99292.97
2022-12-14T20:27:21.064Z,99294.78
2022-12-14T20:29:48.273Z,99287.25
2022-12-14T20:32:15.365Z,99274.41
2022-12-14T20:34:42.842Z,99284.72
2022-12-14T20:37:10.070Z,99285.72
2022-12-14T20:39:37.139Z,99283.31
2022-12-14T20:42:04.174Z,99284.97
2022-12-14T20:44:31.533Z,99266.94
2022-12-14T20:46:58.543Z,99286.56
2022-12-14T20:49:30.159Z,99286.47
2022-12-14T20:51:57.690Z,99283.13
2022-12-14T20:54:25.780Z,99267.91
2022-12-14T20:56:52.891Z,99281.53
2022-12-14T20:59:20.129Z,99279.44
2022-12-14T21:01:53.581Z,99277.75
2022-12-14T21:04:23.143Z,99282.91
2022-12-14T21:06:50.346Z,99271.81
2022-12-14T21:09:17.522Z,99278.91
2022-12-14T21:12:08.696Z,99269.03
2022-12-14T21:14:38.094Z,99270.81
2022-12-14T21:17:06.070Z,99268.34
2022-12-14T21:19:34.072Z,99278.56
2022-12-14T21:22:01.134Z,99280.38
2022-12-14T21:25:01.165Z,99282.22
2022-12-14T21:27:25.021Z,99266.84
2022-12-14T21:29:52.882Z,99266.97
2022-12-14T21:32:21.494Z,99274.53
2022-12-14T21:34:49.067Z,99266.84
2022-12-14T21:37:16.302Z,99268.63
2022-12-14T21:39:47.566Z,99265.25
2022-12-14T21:42:20.923Z,99270.31
2022-12-14T21:44:50.778Z,99266.84
2022-12-14T21:47:22.248Z,99264.03
2022-12-14T21:49:49.613Z,99259.78
2022-12-14T21:52:20.576Z,99263.09
2022-12-14T21:54:47.799Z,99259.78
2022-12-14T21:57:35.902Z,99254.97
2022-12-14T22:00:05.697Z,99256.56
2022-12-14T22:02:39.891Z,99247.22
2022-12-14T22:05:07.593Z,99247.63
2022-12-14T22:07:34.691Z,99244.09
2022-12-14T22:10:02.255Z,99249.09
2022-12-14T22:12:29.602Z,99242.22
2022-12-14T22:14:56.661Z,99248.41
2022-12-14T22:17:23.879Z,99244.28
2022-12-14T22:19:52.242Z,99246.25
2022-12-14T22:22:19.292Z,99240.19
2022-12-14T22:24:49.743Z,99242.59
2022-12-14T22:27:17.223Z,99239.03
2022-12-14T22:29:44.301Z,99238.22
2022-12-14T22:32:12.396Z,99232.41
2022-12-14T22:34:39.785Z,99229.06
2022-12-14T22:37:06.921Z,99218.88
2022-12-14T22:39:33.975Z,99207.34
2022-12-14T22:42:01.225Z,99229.91
2022-12-14T22:44:28.498Z,99237.44
2022-12-14T22:46:55.570Z,99210.16
2022-12-14T22:49:22.849Z,99222.31
2022-12-14T22:51:50.740Z,99218.88
2022-12-14T22:54:27.855Z,99216.06
2022-12-14T22:57:02.573Z,99222.69
2022-12-14T23:00:05.311Z,99226.75
2022-12-14T23:02:32.518Z,99223.44
2022-12-14T23:04:59.813Z,99212.22
2022-12-14T23:07:26.806Z,99218.06
2022-12-14T23:10:12.485Z,99206.81
2022-12-14T23:12:57.968Z,99225.31
2022-12-14T23:15:43.701Z,99222.88
2022-12-14T23:18:29.014Z,99217.72
2022-12-14T23:21:15.004Z,99217.56
2022-12-14T23:24:01.915Z,99227.91
2022-12-14T23:26:47.983Z,99231.31
2022-12-14T23:29:33.958Z,99231.31
2022-12-14T23:32:19.173Z,99227.91
2022-12-14T23:35:04.562Z,99227.91
2022-12-14T23:37:50.291Z,99227.78
2022-12-14T23:40:35.767Z,99222.41
2022-12-14T23:43:36.124Z,99226.41
2022-12-14T23:46:23.139Z,99236.34
2022-12-14T23:49:13.699Z,99237.16
2022-12-14T23:52:01.525Z,99238.00
2022-12-14T23:54:47.216Z,99232.00
2022-12-14T23:57:32.710Z,99220.78
